Time;durP1;ratioP1;P1;durP2;ratioP2;P2;SDS_P1;SDS_P2;PMS_P1;PMS_P2;Temp;Humidity;BMP_temperature;BMP_pressure;BME280_temperature;BME280_humidity;BME280_pressure;Samples;Min_cycle;Max_cycle;Signal;HPM_P1;HPM_P2
2021/11/21 00:00:48;;;;;;;15.43;11.90;;;8.60;99.90;;;;;;5050025;28;20232;-68
2021/11/21 00:03:13;;;;;;;17.30;13.23;;;8.50;99.90;;;;;;5031589;28;20225;-67
2021/11/21 00:05:44;;;;;;;18.60;14.37;;;8.40;99.90;;;;;;5049966;28;20197;-68
2021/11/21 00:08:12;;;;;;;22.90;15.87;;;8.30;99.90;;;;;;5049150;28;20201;-67
2021/11/21 00:10:38;;;;;;;20.53;15.20;;;8.10;99.90;;;;;;5032312;28;20472;-63
2021/11/21 00:13:05;;;;;;;20.93;15.63;;;8.00;99.90;;;;;;5049463;28;20829;-67
2021/11/21 00:15:32;;;;;;;22.30;15.73;;;7.80;99.90;;;;;;5048090;28;20523;-67
2021/11/21 00:17:57;;;;;;;20.43;14.33;;;7.70;99.90;;;;;;5049322;28;20439;-67
2021/11/21 00:20:23;;;;;;;21.80;14.27;;;7.60;99.90;;;;;;5031169;28;20522;-68
2021/11/21 00:22:49;;;;;;;21.73;14.40;;;7.50;99.90;;;;;;5048994;28;20233;-67
2021/11/21 00:25:15;;;;;;;18.90;13.90;;;7.50;99.90;;;;;;5050010;28;20174;-68
2021/11/21 00:27:40;;;;;;;20.77;14.37;;;7.40;99.90;;;;;;5048228;28;20201;-67
2021/11/21 00:30:06;;;;;;;22.93;15.40;;;7.20;99.90;;;;;;5049454;28;20213;-70
2021/11/21 00:32:32;;;;;;;21.80;15.30;;;7.20;99.90;;;;;;5048573;28;20178;-69
2021/11/21 00:34:58;;;;;;;23.80;15.63;;;7.10;99.90;;;;;;5048626;28;20436;-70
2021/11/21 00:37:26;;;;;;;24.40;17.43;;;7.00;99.90;;;;;;5050022;28;20177;-70
2021/11/21 00:39:52;;;;;;;21.03;15.30;;;7.00;99.90;;;;;;5048568;28;20821;-67
2021/11/21 00:42:17;;;;;;;17.60;13.67;;;6.90;99.90;;;;;;5049810;28;20393;-67
2021/11/21 00:44:44;;;;;;;23.27;14.90;;;6.80;99.90;;;;;;5049033;28;20965;-68
2021/11/21 00:47:10;;;;;;;19.25;14.20;;;6.70;99.90;;;;;;5049930;28;20239;-68
2021/11/21 00:49:36;;;;;;;21.27;14.60;;;6.60;99.90;;;;;;5048203;28;21019;-66
2021/11/21 00:52:03;;;;;;;22.20;16.20;;;6.50;99.90;;;;;;5049783;28;20401;-64
2021/11/21 00:54:45;;;;;;;25.00;15.70;;;6.50;99.90;;;;;;5047760;28;20515;-68
2021/11/21 00:57:10;;;;;;;21.67;13.80;;;6.50;99.90;;;;;;5046163;28;20495;-68
2021/11/21 00:59:36;;;;;;;23.83;16.33;;;6.40;99.90;;;;;;5047326;28;20848;-70
2021/11/21 01:02:08;;;;;;;21.30;14.67;;;6.40;99.90;;;;;;5049265;28;20236;-68
2021/11/21 01:04:34;;;;;;;22.83;16.17;;;6.40;99.90;;;;;;5043732;28;20579;-67
2021/11/21 01:07:00;;;;;;;21.10;15.80;;;6.40;99.90;;;;;;5040452;28;20431;-68
2021/11/21 01:09:26;;;;;;;22.87;15.23;;;6.40;99.90;;;;;;5043241;28;20461;-69
2021/11/21 01:11:52;;;;;;;20.37;14.83;;;6.50;99.90;;;;;;5032983;28;20459;-68
2021/11/21 01:14:18;;;;;;;21.30;14.40;;;6.50;99.90;;;;;;5041611;28;20701;-70
2021/11/21 01:16:44;;;;;;;20.80;14.80;;;6.60;99.90;;;;;;5029318;28;20414;-69
2021/11/21 01:19:09;;;;;;;20.87;14.17;;;6.50;99.90;;;;;;5041976;28;20444;-63
2021/11/21 01:21:35;;;;;;;18.77;13.73;;;6.50;99.90;;;;;;5040407;28;20278;-69
2021/11/21 01:24:01;;;;;;;17.87;13.40;;;6.50;99.90;;;;;;5042370;28;20190;-68
2021/11/21 01:26:27;;;;;;;17.90;12.40;;;6.40;99.90;;;;;;5031507;28;20180;-69
2021/11/21 01:28:53;;;;;;;15.70;11.57;;;6.50;99.90;;;;;;5048192;28;20185;-70
2021/11/21 01:31:20;;;;;;;19.67;13.17;;;6.50;99.90;;;;;;5029689;28;21223;-71
2021/11/21 01:33:46;;;;;;;15.80;12.40;;;6.50;99.90;;;;;;5040925;28;20498;-70
2021/11/21 01:36:12;;;;;;;15.47;11.07;;;6.50;99.90;;;;;;5030126;28;20418;-67
2021/11/21 01:38:40;;;;;;;16.53;11.97;;;6.50;99.90;;;;;;5037168;28;20892;-67
2021/11/21 01:41:06;;;;;;;16.40;11.32;;;6.50;99.90;;;;;;5031408;28;20635;-64
2021/11/21 01:43:31;;;;;;;15.67;12.20;;;6.50;99.90;;;;;;5034909;28;20174;-64
2021/11/21 01:45:57;;;;;;;15.00;11.57;;;6.50;99.90;;;;;;5045160;28;20182;-68
2021/11/21 01:48:23;;;;;;;20.60;13.60;;;6.50;99.90;;;;;;5039624;28;20652;-68
2021/11/21 01:50:49;;;;;;;13.70;10.40;;;6.50;99.90;;;;;;5035709;28;20222;-66
2021/11/21 01:53:14;;;;;;;13.07;10.33;;;6.50;99.90;;;;;;5045331;28;20272;-63
2021/11/21 01:55:44;;;;;;;12.63;9.80;;;6.40;99.90;;;;;;5034848;28;20405;-67
2021/11/21 01:58:10;;;;;;;14.45;10.55;;;6.40;99.90;;;;;;5047251;28;20429;-67
2021/11/21 02:00:39;;;;;;;15.37;11.17;;;6.40;99.90;;;;;;5043986;28;20187;-67
2021/11/21 02:03:05;;;;;;;12.70;10.25;;;6.40;99.90;;;;;;5038954;28;20178;-67
2021/11/21 02:05:31;;;;;;;16.77;10.98;;;6.40;99.90;;;;;;5031945;28;20234;-67
2021/11/21 02:07:57;;;;;;;14.17;11.10;;;6.40;99.90;;;;;;5035789;28;20195;-67
2021/11/21 02:10:23;;;;;;;14.00;10.93;;;6.40;99.90;;;;;;5037167;28;20593;-67
2021/11/21 02:12:50;;;;;;;14.60;10.47;;;6.40;99.90;;;;;;5039510;28;20432;-67
2021/11/21 02:15:19;;;;;;;15.00;10.90;;;6.50;99.90;;;;;;5029963;28;20460;-67
2021/11/21 02:17:45;;;;;;;15.57;11.10;;;6.40;99.90;;;;;;5043761;28;20536;-68
2021/11/21 02:20:16;;;;;;;14.23;11.33;;;6.30;99.90;;;;;;5044372;28;20506;-68
2021/11/21 02:22:42;;;;;;;13.10;10.25;;;6.30;99.90;;;;;;5041695;28;20520;-67
2021/11/21 02:25:11;;;;;;;15.00;11.33;;;6.40;99.90;;;;;;5042178;28;20716;-66
2021/11/21 02:27:37;;;;;;;13.30;11.37;;;6.40;99.90;;;;;;5040290;28;20183;-63
2021/11/21 02:30:08;;;;;;;14.70;11.13;;;6.40;99.90;;;;;;5032301;28;20643;-67
2021/11/21 02:32:35;;;;;;;14.10;11.20;;;6.50;99.90;;;;;;5033899;28;20435;-67
2021/11/21 02:35:01;;;;;;;16.90;11.35;;;6.50;99.90;;;;;;5044385;28;20436;-67
2021/11/21 02:37:27;;;;;;;14.65;10.75;;;6.50;99.90;;;;;;5038700;28;20178;-63
2021/11/21 02:39:53;;;;;;;14.37;10.80;;;6.50;99.90;;;;;;5050243;28;20234;-67
2021/11/21 02:42:37;;;;;;;16.10;10.88;;;6.40;99.90;;;;;;5038692;28;20209;-67
2021/11/21 02:45:05;;;;;;;16.10;12.10;;;6.40;99.90;;;;;;5037406;28;20195;-67
2021/11/21 02:47:34;;;;;;;15.43;12.43;;;6.40;99.90;;;;;;5045925;28;20840;-64
2021/11/21 02:50:11;;;;;;;16.33;11.85;;;6.30;99.90;;;;;;5033698;28;20209;-68
2021/11/21 02:52:37;;;;;;;17.80;12.85;;;6.40;99.90;;;;;;5048600;28;20261;-64
2021/11/21 02:55:03;;;;;;;15.40;11.10;;;6.40;99.90;;;;;;5038860;28;20177;-68
2021/11/21 02:57:29;;;;;;;16.37;11.90;;;6.40;99.90;;;;;;5044910;28;20451;-67
2021/11/21 02:59:55;;;;;;;16.53;11.07;;;6.40;99.90;;;;;;5037177;28;20442;-63
2021/11/21 03:02:22;;;;;;;17.20;12.10;;;6.50;99.90;;;;;;5039153;28;20984;-67
2021/11/21 03:04:50;;;;;;;14.93;10.88;;;6.60;99.90;;;;;;5039766;28;20437;-67
2021/11/21 03:07:15;;;;;;;14.03;10.57;;;6.60;99.90;;;;;;5047893;28;20266;-68
2021/11/21 03:09:41;;;;;;;15.90;12.17;;;6.60;99.90;;;;;;5049629;28;20935;-68
2021/11/21 03:12:08;;;;;;;14.23;11.17;;;6.60;99.90;;;;;;5050110;28;20241;-68
2021/11/21 03:14:34;;;;;;;17.60;12.20;;;6.60;99.90;;;;;;5036567;28;20424;-68
2021/11/21 03:17:00;;;;;;;13.27;10.87;;;6.60;99.90;;;;;;5041611;28;20208;-66
2021/11/21 03:19:27;;;;;;;15.00;11.97;;;6.70;99.90;;;;;;5036966;28;20534;-68
2021/11/21 03:21:53;;;;;;;16.23;11.33;;;6.70;99.90;;;;;;5050183;28;20996;-69
2021/11/21 03:24:19;;;;;;;15.20;12.00;;;6.70;99.90;;;;;;5037431;28;20432;-67
2021/11/21 03:26:45;;;;;;;16.02;12.23;;;6.70;99.90;;;;;;5049714;28;20664;-67
2021/11/21 03:29:12;;;;;;;17.40;11.77;;;6.70;99.90;;;;;;5050154;28;20191;-64
2021/11/21 03:31:37;;;;;;;16.20;11.97;;;6.70;99.90;;;;;;5049128;28;20527;-68
2021/11/21 03:34:04;;;;;;;15.13;11.20;;;6.70;99.90;;;;;;5048339;28;20428;-67
2021/11/21 03:36:30;;;;;;;15.83;11.93;;;6.70;99.90;;;;;;5051141;28;20178;-68
2021/11/21 03:38:56;;;;;;;14.18;11.55;;;6.80;99.90;;;;;;5036148;28;20465;-67
2021/11/21 03:41:22;;;;;;;16.57;11.37;;;6.80;99.90;;;;;;5048294;28;20190;-68
2021/11/21 03:43:48;;;;;;;15.90;11.70;;;6.80;99.90;;;;;;5048996;28;20460;-68
2021/11/21 03:46:13;;;;;;;13.73;10.63;;;6.80;99.90;;;;;;5042998;28;20191;-66
2021/11/21 03:48:39;;;;;;;15.30;12.07;;;6.80;99.90;;;;;;5030961;28;20262;-67
2021/11/21 03:51:05;;;;;;;14.07;10.50;;;6.90;99.90;;;;;;5043613;28;20583;-68
2021/11/21 03:53:30;;;;;;;13.13;11.07;;;6.90;99.90;;;;;;5040241;28;20186;-68
2021/11/21 03:55:56;;;;;;;16.77;12.17;;;6.90;99.90;;;;;;5042527;28;20302;-67
2021/11/21 03:58:22;;;;;;;13.13;10.67;;;6.90;99.90;;;;;;5043088;28;20573;-67
2021/11/21 04:00:49;;;;;;;13.00;11.03;;;6.90;99.90;;;;;;5053954;28;20305;-67
2021/11/21 04:03:16;;;;;;;15.53;11.07;;;6.90;99.90;;;;;;5043129;28;20296;-68
2021/11/21 04:05:42;;;;;;;14.73;11.23;;;6.90;99.90;;;;;;5047921;28;20471;-68
2021/11/21 04:08:08;;;;;;;14.90;11.00;;;6.90;99.90;;;;;;5036987;28;20504;-67
2021/11/21 04:10:34;;;;;;;15.73;11.60;;;6.90;99.90;;;;;;5048689;28;20210;-67
2021/11/21 04:13:01;;;;;;;13.90;10.87;;;6.90;99.90;;;;;;5050329;28;20436;-67
2021/11/21 04:15:27;;;;;;;15.50;11.63;;;6.90;99.90;;;;;;5036658;28;20472;-66
2021/11/21 04:17:52;;;;;;;16.37;11.13;;;7.00;99.90;;;;;;5033393;28;20545;-65
2021/11/21 04:20:18;;;;;;;16.93;11.90;;;7.00;99.90;;;;;;5045661;28;20532;-68
2021/11/21 04:22:44;;;;;;;16.07;11.90;;;6.90;99.90;;;;;;5035948;28;20197;-68
2021/11/21 04:25:11;;;;;;;14.30;10.47;;;7.00;99.90;;;;;;5031145;28;20455;-69
2021/11/21 04:27:38;;;;;;;15.97;12.30;;;7.00;99.90;;;;;;5039869;28;20194;-68
2021/11/21 04:30:06;;;;;;;13.20;10.90;;;7.00;99.90;;;;;;5033860;28;20824;-68
2021/11/21 04:32:32;;;;;;;16.00;11.60;;;7.10;99.90;;;;;;5031723;28;20421;-68
2021/11/21 04:34:58;;;;;;;18.20;12.37;;;7.00;99.90;;;;;;5036414;28;20438;-67
2021/11/21 04:37:24;;;;;;;15.07;10.83;;;7.10;99.90;;;;;;5029911;28;20241;-68
2021/11/21 04:39:49;;;;;;;14.43;11.10;;;7.10;99.90;;;;;;5044053;28;20481;-68
2021/11/21 04:42:16;;;;;;;13.93;12.00;;;7.10;99.90;;;;;;5046213;28;20186;-68
2021/11/21 04:44:43;;;;;;;15.33;11.27;;;7.10;99.90;;;;;;5035089;28;20637;-72
2021/11/21 04:47:10;;;;;;;16.07;11.90;;;7.10;99.90;;;;;;5041363;28;20447;-68
2021/11/21 04:49:36;;;;;;;15.73;11.80;;;7.10;99.90;;;;;;5031139;28;20523;-68
2021/11/21 04:52:01;;;;;;;16.90;11.27;;;7.10;99.90;;;;;;5048053;28;20930;-68
2021/11/21 04:54:27;;;;;;;13.57;11.13;;;7.10;99.90;;;;;;5047946;28;20186;-66
2021/11/21 04:56:53;;;;;;;14.33;11.43;;;7.10;99.90;;;;;;5029650;28;20798;-68
2021/11/21 04:59:20;;;;;;;15.50;11.70;;;7.20;99.90;;;;;;5040493;28;20424;-68
2021/11/21 05:01:47;;;;;;;15.27;11.53;;;7.10;99.90;;;;;;5046907;28;20845;-68
2021/11/21 05:04:13;;;;;;;16.03;11.50;;;7.10;99.90;;;;;;5034106;28;20410;-68
2021/11/21 05:06:39;;;;;;;15.23;11.17;;;7.10;99.90;;;;;;5046175;28;20459;-68
2021/11/21 05:09:05;;;;;;;15.50;11.73;;;7.10;99.90;;;;;;5047744;28;20185;-68
2021/11/21 05:11:32;;;;;;;14.00;10.83;;;7.20;99.90;;;;;;5040985;28;20745;-69
2021/11/21 05:13:59;;;;;;;15.50;12.23;;;7.20;99.90;;;;;;5032771;28;20429;-67
2021/11/21 05:16:25;;;;;;;13.63;10.70;;;7.20;99.90;;;;;;5029590;28;20444;-68
2021/11/21 05:18:51;;;;;;;16.70;12.60;;;7.20;99.90;;;;;;5048286;28;20425;-68
2021/11/21 05:21:17;;;;;;;17.17;12.23;;;7.30;99.90;;;;;;5043301;28;20467;-68
2021/11/21 05:23:43;;;;;;;17.10;11.70;;;7.30;99.90;;;;;;5035437;28;20416;-66
2021/11/21 05:26:09;;;;;;;15.47;11.60;;;7.30;99.90;;;;;;5046898;28;20439;-68
2021/11/21 05:28:34;;;;;;;15.90;11.47;;;7.40;99.90;;;;;;5043497;28;20827;-68
2021/11/21 05:31:00;;;;;;;15.60;11.70;;;7.40;99.90;;;;;;5039473;28;20217;-68
2021/11/21 05:33:26;;;;;;;17.43;12.87;;;7.50;99.90;;;;;;5039323;28;20625;-68
2021/11/21 05:35:51;;;;;;;18.53;12.80;;;7.50;99.90;;;;;;5042771;28;20218;-68
2021/11/21 05:38:17;;;;;;;20.70;13.70;;;7.70;99.90;;;;;;5037051;28;20209;-66
2021/11/21 05:40:43;;;;;;;19.20;13.23;;;7.70;99.90;;;;;;5047373;28;20605;-68
2021/11/21 05:43:08;;;;;;;19.27;13.73;;;7.80;99.90;;;;;;5037970;28;20587;-67
2021/11/21 05:45:34;;;;;;;16.40;12.10;;;7.80;99.90;;;;;;5029589;28;20186;-68
2021/11/21 05:48:00;;;;;;;18.50;13.60;;;7.80;99.90;;;;;;5036842;28;20259;-68
2021/11/21 05:50:25;;;;;;;19.00;13.50;;;7.90;99.90;;;;;;5041172;28;20276;-67
2021/11/21 05:52:53;;;;;;;18.70;12.83;;;8.00;99.90;;;;;;5048534;28;20198;-69
2021/11/21 05:55:20;;;;;;;18.40;13.50;;;7.90;99.90;;;;;;5048055;28;20205;-69
2021/11/21 05:57:46;;;;;;;20.57;14.43;;;8.00;99.90;;;;;;5049139;28;20413;-68
2021/11/21 06:00:15;;;;;;;17.40;13.60;;;8.00;99.90;;;;;;5058735;28;20549;-68
2021/11/21 06:02:41;;;;;;;19.50;13.53;;;8.10;99.90;;;;;;5047427;28;20839;-69
2021/11/21 06:05:08;;;;;;;19.37;13.60;;;8.10;99.90;;;;;;5048275;28;20551;-67
2021/11/21 06:07:34;;;;;;;20.70;13.70;;;8.10;99.90;;;;;;5052309;28;20424;-67
2021/11/21 06:10:04;;;;;;;17.37;12.57;;;8.10;99.90;;;;;;5052646;28;20463;-67
2021/11/21 06:12:30;;;;;;;16.20;11.93;;;8.10;99.90;;;;;;5051367;28;20190;-68
2021/11/21 06:14:56;;;;;;;17.80;12.67;;;8.10;99.90;;;;;;5050945;28;20440;-67
2021/11/21 06:17:21;;;;;;;21.03;14.80;;;8.10;99.90;;;;;;5051649;28;20467;-67
2021/11/21 06:19:47;;;;;;;20.40;12.97;;;8.10;99.90;;;;;;5049187;28;20252;-69
2021/11/21 06:22:14;;;;;;;20.90;14.33;;;8.10;99.90;;;;;;5051058;28;20830;-68
2021/11/21 06:24:40;;;;;;;18.30;12.73;;;8.10;99.90;;;;;;5049825;28;20182;-67
2021/11/21 06:27:06;;;;;;;17.53;12.40;;;8.20;99.90;;;;;;5043439;28;20432;-68
2021/11/21 06:29:32;;;;;;;18.90;13.60;;;8.20;99.90;;;;;;5047675;28;20232;-68
2021/11/21 06:31:57;;;;;;;18.10;13.00;;;8.20;99.90;;;;;;5035412;28;20187;-68
2021/11/21 06:34:23;;;;;;;20.50;15.03;;;8.20;99.90;;;;;;5047493;28;20440;-68
2021/11/21 06:36:49;;;;;;;17.43;13.13;;;8.10;99.90;;;;;;5051494;28;20193;-68
2021/11/21 06:39:15;;;;;;;19.43;13.97;;;8.20;99.90;;;;;;5034967;28;20238;-69
2021/11/21 06:41:41;;;;;;;19.57;14.43;;;8.20;99.90;;;;;;5039283;28;20428;-69
2021/11/21 06:44:07;;;;;;;19.30;12.90;;;8.30;99.90;;;;;;5048963;28;20683;-68
2021/11/21 06:46:33;;;;;;;19.70;13.23;;;8.10;99.90;;;;;;5041821;28;20218;-69
2021/11/21 06:49:00;;;;;;;20.33;13.40;;;8.10;99.90;;;;;;5032674;28;20434;-69
2021/11/21 06:51:27;;;;;;;18.20;13.83;;;8.00;99.90;;;;;;5044592;28;20480;-66
2021/11/21 06:53:53;;;;;;;17.77;12.37;;;8.00;99.90;;;;;;5035655;28;20493;-69
2021/11/21 06:56:19;;;;;;;18.87;13.53;;;8.00;99.90;;;;;;5038879;28;20432;-68
2021/11/21 06:58:47;;;;;;;18.63;13.63;;;8.00;99.90;;;;;;5033524;28;20435;-66
2021/11/21 07:01:13;;;;;;;19.13;14.30;;;8.00;99.90;;;;;;5039987;28;20614;-68
2021/11/21 07:03:40;;;;;;;19.03;13.97;;;8.00;99.90;;;;;;5052787;28;20448;-68
2021/11/21 07:06:06;;;;;;;17.97;12.47;;;8.00;99.90;;;;;;5049634;28;20535;-68
2021/11/21 07:08:32;;;;;;;19.27;13.00;;;8.00;99.90;;;;;;5055469;28;20507;-68
2021/11/21 07:10:57;;;;;;;20.00;14.10;;;7.90;99.90;;;;;;5048242;28;20460;-68
2021/11/21 07:13:23;;;;;;;21.90;14.73;;;8.00;99.90;;;;;;5048598;28;20440;-67
2021/11/21 07:15:50;;;;;;;17.70;12.83;;;7.90;99.90;;;;;;5049192;28;20235;-68
2021/11/21 07:18:15;;;;;;;18.50;13.67;;;7.90;99.90;;;;;;5033739;28;20437;-68
2021/11/21 07:20:41;;;;;;;21.87;14.90;;;7.90;99.90;;;;;;5038818;28;20486;-68
2021/11/21 07:23:09;;;;;;;18.37;13.30;;;8.00;99.90;;;;;;5041580;28;20268;-68
2021/11/21 07:25:34;;;;;;;16.60;12.17;;;7.90;99.90;;;;;;5040297;28;20182;-68
2021/11/21 07:28:00;;;;;;;18.27;13.33;;;8.00;99.90;;;;;;5040229;28;20497;-68
2021/11/21 07:30:26;;;;;;;18.80;13.03;;;8.00;99.90;;;;;;5040612;28;20559;-67
2021/11/21 07:32:53;;;;;;;17.10;13.33;;;8.00;99.90;;;;;;5040848;28;20251;-67
2021/11/21 07:35:21;;;;;;;19.27;14.03;;;8.00;99.90;;;;;;5041892;28;20185;-67
2021/11/21 07:37:47;;;;;;;23.10;15.07;;;7.90;99.90;;;;;;5040875;28;20441;-67
2021/11/21 07:40:14;;;;;;;19.40;13.77;;;7.90;99.90;;;;;;5041763;28;21392;-67
2021/11/21 07:42:40;;;;;;;20.60;15.07;;;7.80;99.90;;;;;;5040197;28;20463;-68
2021/11/21 07:45:09;;;;;;;19.80;14.20;;;7.70;99.90;;;;;;5042031;28;20443;-68
2021/11/21 07:47:35;;;;;;;19.33;14.03;;;7.80;99.90;;;;;;5040551;28;20510;-68
2021/11/21 07:50:01;;;;;;;20.53;13.93;;;7.90;99.90;;;;;;5041517;28;20456;-67
2021/11/21 07:52:26;;;;;;;17.10;13.30;;;7.90;99.90;;;;;;5039611;28;20212;-67
2021/11/21 07:54:52;;;;;;;19.60;14.20;;;7.90;99.90;;;;;;5041895;28;20209;-66
2021/11/21 07:57:19;;;;;;;19.43;14.60;;;7.90;99.90;;;;;;5028351;28;20195;-67
2021/11/21 07:59:44;;;;;;;19.70;14.87;;;8.00;99.90;;;;;;5057656;28;20514;-66
2021/11/21 08:02:11;;;;;;;19.27;13.57;;;8.00;99.90;;;;;;5031282;28;20852;-68
2021/11/21 08:04:36;;;;;;;20.43;14.10;;;8.00;99.90;;;;;;5030154;28;20360;-67
2021/11/21 08:07:02;;;;;;;20.80;13.50;;;8.10;99.90;;;;;;5024369;28;21302;-73
2021/11/21 08:09:28;;;;;;;18.73;13.90;;;8.10;99.90;;;;;;5034677;28;20659;-68
2021/11/21 08:11:54;;;;;;;22.30;14.37;;;8.20;99.90;;;;;;5042045;28;20441;-67
2021/11/21 08:14:19;;;;;;;20.10;14.20;;;8.20;99.90;;;;;;5049003;28;20178;-66
2021/11/21 08:16:47;;;;;;;21.40;14.03;;;8.10;99.90;;;;;;5034115;28;20202;-66
2021/11/21 08:19:13;;;;;;;21.20;14.13;;;8.10;99.90;;;;;;5031565;28;20210;-65
2021/11/21 08:21:39;;;;;;;21.50;14.80;;;8.10;99.90;;;;;;5029524;28;20433;-65
2021/11/21 08:24:07;;;;;;;21.83;14.10;;;8.30;99.90;;;;;;5031439;28;20437;-67
2021/11/21 08:26:34;;;;;;;22.33;14.60;;;8.30;99.90;;;;;;5039353;28;20801;-66
2021/11/21 08:29:00;;;;;;;17.37;12.63;;;8.40;99.90;;;;;;5038963;28;20903;-67
2021/11/21 08:31:26;;;;;;;21.00;14.80;;;8.50;99.90;;;;;;5029457;28;20449;-68
2021/11/21 08:33:51;;;;;;;18.80;13.80;;;8.50;99.90;;;;;;5038407;28;20441;-69
2021/11/21 08:36:17;;;;;;;19.27;14.67;;;8.50;99.90;;;;;;5029972;28;20210;-67
2021/11/21 08:38:43;;;;;;;20.03;14.53;;;8.60;99.90;;;;;;5049574;28;20249;-69
2021/11/21 08:41:08;;;;;;;22.33;15.10;;;8.60;99.90;;;;;;5042888;28;20234;-67
2021/11/21 08:43:34;;;;;;;18.77;14.40;;;8.60;99.90;;;;;;5047111;28;20182;-64
2021/11/21 08:46:00;;;;;;;23.73;16.13;;;8.60;99.90;;;;;;5047388;28;20441;-66
2021/11/21 08:48:25;;;;;;;21.17;14.40;;;8.60;99.90;;;;;;5042922;28;20296;-63
2021/11/21 08:50:53;;;;;;;22.97;14.73;;;8.70;99.90;;;;;;5046433;28;20309;-70
2021/11/21 08:53:19;;;;;;;19.50;14.60;;;8.70;99.90;;;;;;5046190;28;20186;-69
2021/11/21 08:55:45;;;;;;;23.60;14.97;;;8.70;99.90;;;;;;5044442;28;20469;-62
2021/11/21 08:58:11;;;;;;;21.47;14.10;;;8.60;99.90;;;;;;5046543;28;20843;-71
2021/11/21 09:00:37;;;;;;;25.77;16.20;;;8.50;99.90;;;;;;5046332;28;20448;-68
2021/11/21 09:03:02;;;;;;;21.10;14.83;;;8.50;99.90;;;;;;5048734;28;20197;-64
2021/11/21 09:05:28;;;;;;;23.20;16.27;;;8.50;99.90;;;;;;5044066;28;20612;-65
2021/11/21 09:07:54;;;;;;;20.60;14.20;;;8.50;99.90;;;;;;5047334;28;20182;-69
2021/11/21 09:10:21;;;;;;;22.17;14.97;;;8.40;99.90;;;;;;5045911;28;20289;-67
2021/11/21 09:12:47;;;;;;;19.97;14.37;;;8.50;99.90;;;;;;5038373;28;20200;-66
2021/11/21 09:15:15;;;;;;;23.20;16.27;;;8.50;99.90;;;;;;5039948;28;20413;-64
2021/11/21 09:17:46;;;;;;;20.73;14.47;;;8.50;99.90;;;;;;5039127;28;20588;-68
2021/11/21 09:20:12;;;;;;;20.73;14.47;;;8.40;99.90;;;;;;5038998;28;20436;-63
2021/11/21 09:22:38;;;;;;;21.97;14.50;;;8.40;99.90;;;;;;5040006;28;20927;-68
2021/11/21 09:25:05;;;;;;;20.27;14.97;;;8.50;99.90;;;;;;5038269;28;20455;-67
2021/11/21 09:27:30;;;;;;;20.03;14.40;;;8.50;99.90;;;;;;5031644;28;20215;-65
2021/11/21 09:29:56;;;;;;;19.83;14.20;;;8.50;99.90;;;;;;5028820;28;20510;-66
2021/11/21 09:32:22;;;;;;;23.23;14.53;;;8.50;99.90;;;;;;5030519;28;20187;-65
2021/11/21 09:34:48;;;;;;;23.50;15.73;;;8.40;99.90;;;;;;5039039;28;20420;-65
2021/11/21 09:37:14;;;;;;;22.70;14.77;;;8.50;99.90;;;;;;5036971;28;20190;-65
2021/11/21 09:39:39;;;;;;;21.90;15.03;;;8.30;99.90;;;;;;5035435;28;20238;-67
2021/11/21 09:42:05;;;;;;;26.03;15.67;;;8.30;99.90;;;;;;5039556;28;20494;-70
2021/11/21 09:44:32;;;;;;;24.37;16.17;;;8.30;99.90;;;;;;5043085;28;20186;-67
2021/11/21 09:46:57;;;;;;;23.03;15.20;;;8.40;99.90;;;;;;5038408;28;20194;-67
2021/11/21 09:49:26;;;;;;;21.20;14.70;;;8.50;99.90;;;;;;5039635;28;20455;-64
2021/11/21 09:51:52;;;;;;;20.60;14.60;;;8.50;99.90;;;;;;5041304;28;20186;-66
2021/11/21 09:54:18;;;;;;;21.80;15.17;;;8.50;99.90;;;;;;5042430;28;20436;-71
2021/11/21 09:56:46;;;;;;;22.93;14.63;;;8.50;99.90;;;;;;5040332;28;20938;-68
2021/11/21 09:59:12;;;;;;;23.67;15.70;;;8.50;99.90;;;;;;5041804;28;20444;-70
2021/11/21 10:01:43;;;;;;;22.20;15.00;;;8.60;99.90;;;;;;5019660;28;20433;-68
2021/11/21 10:04:12;;;;;;;23.60;15.83;;;8.60;99.90;;;;;;5041294;28;20435;-67
2021/11/21 10:06:45;;;;;;;21.90;14.43;;;8.70;99.90;;;;;;5041001;28;20436;-70
2021/11/21 10:09:18;;;;;;;22.70;15.27;;;8.80;99.90;;;;;;5041266;28;20822;-68
2021/11/21 10:11:58;;;;;;;22.87;16.23;;;8.90;99.90;;;;;;5038652;28;20505;-65
2021/11/21 10:14:24;;;;;;;23.97;16.07;;;9.00;99.90;;;;;;5036359;28;20420;-71
2021/11/21 10:16:50;;;;;;;23.77;16.30;;;9.00;99.90;;;;;;5042163;28;20456;-63
2021/11/21 10:19:17;;;;;;;23.83;16.50;;;8.90;99.90;;;;;;5036758;28;20218;-64
2021/11/21 10:21:45;;;;;;;23.20;16.43;;;8.90;99.90;;;;;;5036015;28;20197;-67
2021/11/21 10:24:26;;;;;;;20.47;14.67;;;8.90;99.90;;;;;;5038912;28;20464;-64
2021/11/21 10:27:10;;;;;;;21.23;14.90;;;8.90;99.90;;;;;;5038853;28;20429;-65
2021/11/21 10:29:47;;;;;;;20.67;14.97;;;8.80;99.90;;;;;;5038181;28;20968;-65
2021/11/21 10:32:17;;;;;;;21.67;15.50;;;8.80;99.90;;;;;;5034154;28;20493;-64
2021/11/21 10:34:54;;;;;;;23.47;15.37;;;8.90;99.90;;;;;;5039790;28;21568;-64
2021/11/21 10:37:27;;;;;;;22.50;15.37;;;8.80;99.90;;;;;;5034092;28;20527;-65
2021/11/21 10:40:10;;;;;;;23.07;15.47;;;8.70;99.90;;;;;;5038666;28;20485;-61
2021/11/21 10:42:37;;;;;;;21.70;14.70;;;8.80;99.90;;;;;;5041240;28;20491;-61
2021/11/21 10:45:05;;;;;;;20.20;14.23;;;8.90;99.90;;;;;;5041421;28;20494;-63
2021/11/21 10:47:48;;;;;;;20.40;15.33;;;9.00;99.90;;;;;;5041222;28;20444;-62
2021/11/21 10:50:36;;;;;;;20.17;14.90;;;9.10;99.90;;;;;;5032075;28;20523;-63
2021/11/21 10:53:07;;;;;;;21.93;14.93;;;9.10;99.90;;;;;;5038127;28;20437;-61
2021/11/21 10:55:33;;;;;;;20.83;15.10;;;9.10;99.90;;;;;;5037925;28;20450;-62
2021/11/21 10:58:13;;;;;;;22.10;15.00;;;9.10;99.90;;;;;;5046985;28;20444;-62
2021/11/21 11:00:39;;;;;;;20.43;14.50;;;9.00;99.90;;;;;;5041443;28;20432;-63
2021/11/21 11:03:21;;;;;;;20.70;13.97;;;9.00;99.90;;;;;;5036438;28;20790;-67
2021/11/21 11:05:47;;;;;;;24.43;15.30;;;8.90;99.90;;;;;;5040304;28;20918;-66
2021/11/21 11:08:29;;;;;;;22.37;14.67;;;8.80;99.90;;;;;;5050374;28;20437;-65
2021/11/21 11:10:55;;;;;;;20.00;14.23;;;8.80;99.90;;;;;;5039963;28;20484;-65
2021/11/21 11:13:23;;;;;;;19.30;13.60;;;8.90;99.90;;;;;;5047630;28;20472;-65
2021/11/21 11:15:50;;;;;;;19.07;13.13;;;8.90;99.90;;;;;;5035078;28;20442;-66
2021/11/21 11:18:16;;;;;;;19.63;13.70;;;8.90;99.90;;;;;;5044784;28;20468;-66
2021/11/21 11:20:48;;;;;;;18.13;12.70;;;9.00;99.90;;;;;;5042791;28;20477;-66
2021/11/21 11:23:15;;;;;;;17.33;11.87;;;8.90;99.90;;;;;;5045243;28;20777;-66
2021/11/21 11:25:43;;;;;;;16.10;12.37;;;9.00;99.90;;;;;;5045542;28;20523;-66
2021/11/21 11:28:17;;;;;;;18.80;13.33;;;9.10;99.90;;;;;;5050248;28;20451;-66
2021/11/21 11:30:43;;;;;;;18.47;13.30;;;9.20;99.90;;;;;;5040768;28;20874;-69
2021/11/21 11:33:17;;;;;;;18.67;12.13;;;9.30;99.90;;;;;;5041263;28;20441;-65
2021/11/21 11:35:47;;;;;;;16.00;12.30;;;9.50;99.90;;;;;;5047682;28;20720;-66
2021/11/21 11:38:25;;;;;;;17.90;13.37;;;9.60;99.90;;;;;;5042675;28;20437;-67
2021/11/21 11:41:08;;;;;;;18.80;13.40;;;9.70;99.90;;;;;;5054589;28;20973;-67
2021/11/21 11:43:36;;;;;;;17.97;12.40;;;9.70;99.90;;;;;;5047004;28;20913;-67
2021/11/21 11:46:14;;;;;;;14.67;11.63;;;9.80;99.90;;;;;;5033248;28;20569;-67
2021/11/21 11:48:45;;;;;;;14.10;10.90;;;9.90;99.90;;;;;;5036469;28;20953;-67
2021/11/21 11:51:12;;;;;;;16.60;11.50;;;9.80;99.90;;;;;;5034769;28;20476;-66
2021/11/21 11:53:39;;;;;;;16.90;12.53;;;9.80;99.90;;;;;;5039662;28;20469;-67
2021/11/21 11:56:12;;;;;;;16.60;12.73;;;9.70;99.90;;;;;;5036373;28;20810;-67
2021/11/21 11:59:06;;;;;;;14.30;12.10;;;9.60;99.90;;;;;;5037059;28;20494;-67
2021/11/21 12:01:31;;;;;;;17.73;12.57;;;9.50;99.90;;;;;;5040097;28;20452;-66
2021/11/21 12:03:59;;;;;;;15.63;12.17;;;9.40;99.90;;;;;;5039191;28;21263;-67
2021/11/21 12:06:40;;;;;;;17.33;12.60;;;9.30;99.90;;;;;;5039302;28;20823;-67
2021/11/21 12:09:22;;;;;;;15.03;11.50;;;9.30;99.90;;;;;;5043301;28;20465;-67
2021/11/21 12:11:53;;;;;;;16.50;12.20;;;9.30;99.90;;;;;;5043329;28;20460;-67
2021/11/21 12:14:25;;;;;;;16.30;11.90;;;9.30;99.90;;;;;;5040317;28;20958;-67
2021/11/21 12:17:08;;;;;;;16.40;12.67;;;9.30;99.90;;;;;;5038389;28;20449;-67
2021/11/21 12:19:45;;;;;;;15.63;12.13;;;9.20;99.90;;;;;;5038416;28;20524;-67
2021/11/21 12:22:37;;;;;;;20.33;12.80;;;9.20;99.90;;;;;;5040451;28;20448;-67
2021/11/21 12:25:07;;;;;;;16.30;12.40;;;9.20;99.90;;;;;;5020861;28;20434;-67
2021/11/21 12:27:37;;;;;;;17.20;11.90;;;9.30;99.90;;;;;;5039422;28;20433;-68
2021/11/21 12:30:09;;;;;;;16.60;12.10;;;9.10;99.90;;;;;;5039026;28;20473;-67
2021/11/21 12:32:53;;;;;;;16.40;13.03;;;9.20;99.90;;;;;;5044504;28;20429;-67
2021/11/21 12:35:27;;;;;;;16.73;12.90;;;9.20;99.90;;;;;;5032319;28;20426;-67
2021/11/21 12:37:55;;;;;;;15.77;11.93;;;9.20;99.90;;;;;;5048062;28;20463;-67